sensor_id;sensor_type;location;lat;lon;timestamp;P1;durP1;ratioP1;P2;durP2;ratioP2
15181;SDS011;7692;50.602;8.692;2024-01-10T00:01:19;5.00;;;4.90;;
15181;SDS011;7692;50.602;8.692;2024-01-10T00:03:54;4.60;;;4.50;;
15181;SDS011;7692;50.602;8.692;2024-01-10T00:06:22;5.60;;;5.50;;
15181;SDS011;7692;50.602;8.692;2024-01-10T00:08:51;5.40;;;5.30;;
15181;SDS011;7692;50.602;8.692;2024-01-10T00:11:19;5.60;;;5.50;;
15181;SDS011;7692;50.602;8.692;2024-01-10T00:13:48;5.30;;;5.20;;
15181;SDS011;7692;50.602;8.692;2024-01-10T00:16:16;5.30;;;5.20;;
15181;SDS011;7692;50.602;8.692;2024-01-10T00:18:45;4.80;;;4.70;;
15181;SDS011;7692;50.602;8.692;2024-01-10T00:21:15;5.27;;;5.17;;
15181;SDS011;7692;50.602;8.692;2024-01-10T00:23:43;5.30;;;5.20;;
15181;SDS011;7692;50.602;8.692;2024-01-10T00:26:12;4.57;;;4.47;;
15181;SDS011;7692;50.602;8.692;2024-01-10T00:28:40;5.67;;;5.57;;
15181;SDS011;7692;50.602;8.692;2024-01-10T00:31:08;5.10;;;5.00;;
15181;SDS011;7692;50.602;8.692;2024-01-10T00:33:37;5.03;;;4.93;;
15181;SDS011;7692;50.602;8.692;2024-01-10T00:36:05;5.13;;;5.03;;
15181;SDS011;7692;50.602;8.692;2024-01-10T00:38:36;4.60;;;4.50;;
15181;SDS011;7692;50.602;8.692;2024-01-10T00:41:04;5.20;;;5.10;;
15181;SDS011;7692;50.602;8.692;2024-01-10T00:43:33;5.50;;;5.40;;
15181;SDS011;7692;50.602;8.692;2024-01-10T00:46:01;5.50;;;5.40;;
15181;SDS011;7692;50.602;8.692;2024-01-10T00:48:30;5.23;;;5.13;;
15181;SDS011;7692;50.602;8.692;2024-01-10T00:51:00;5.00;;;4.90;;
15181;SDS011;7692;50.602;8.692;2024-01-10T00:53:28;5.43;;;5.33;;
15181;SDS011;7692;50.602;8.692;2024-01-10T00:55:58;5.77;;;5.67;;
15181;SDS011;7692;50.602;8.692;2024-01-10T00:58:26;5.53;;;5.43;;
15181;SDS011;7692;50.602;8.692;2024-01-10T01:00:54;5.77;;;5.67;;
15181;SDS011;7692;50.602;8.692;2024-01-10T01:03:23;5.07;;;4.97;;
15181;SDS011;7692;50.602;8.692;2024-01-10T01:05:51;5.63;;;5.53;;
15181;SDS011;7692;50.602;8.692;2024-01-10T01:08:20;5.33;;;5.23;;
15181;SDS011;7692;50.602;8.692;2024-01-10T01:10:49;5.87;;;5.77;;
15181;SDS011;7692;50.602;8.692;2024-01-10T01:13:18;4.90;;;4.80;;
15181;SDS011;7692;50.602;8.692;2024-01-10T01:15:47;5.50;;;5.40;;
15181;SDS011;7692;50.602;8.692;2024-01-10T01:18:16;5.00;;;4.90;;
15181;SDS011;7692;50.602;8.692;2024-01-10T01:20:45;6.07;;;5.97;;
15181;SDS011;7692;50.602;8.692;2024-01-10T01:23:16;4.90;;;4.80;;
15181;SDS011;7692;50.602;8.692;2024-01-10T01:26:01;4.90;;;4.80;;
15181;SDS011;7692;50.602;8.692;2024-01-10T01:28:31;5.37;;;5.27;;
15181;SDS011;7692;50.602;8.692;2024-01-10T01:30:59;4.60;;;4.50;;
15181;SDS011;7692;50.602;8.692;2024-01-10T01:33:28;5.23;;;5.13;;
15181;SDS011;7692;50.602;8.692;2024-01-10T01:35:56;5.60;;;5.50;;
15181;SDS011;7692;50.602;8.692;2024-01-10T01:38:25;5.10;;;5.00;;
15181;SDS011;7692;50.602;8.692;2024-01-10T01:40:54;6.20;;;6.10;;
15181;SDS011;7692;50.602;8.692;2024-01-10T01:43:22;4.83;;;4.73;;
15181;SDS011;7692;50.602;8.692;2024-01-10T01:45:53;5.27;;;5.17;;
15181;SDS011;7692;50.602;8.692;2024-01-10T01:48:22;5.57;;;5.47;;
15181;SDS011;7692;50.602;8.692;2024-01-10T01:50:52;5.40;;;5.30;;
15181;SDS011;7692;50.602;8.692;2024-01-10T01:53:21;5.77;;;5.67;;
15181;SDS011;7692;50.602;8.692;2024-01-10T01:55:50;5.07;;;4.97;;
15181;SDS011;7692;50.602;8.692;2024-01-10T01:58:18;6.23;;;6.13;;
15181;SDS011;7692;50.602;8.692;2024-01-10T02:00:47;5.47;;;5.37;;
15181;SDS011;7692;50.602;8.692;2024-01-10T02:03:17;5.67;;;5.57;;
15181;SDS011;7692;50.602;8.692;2024-01-10T02:05:48;5.00;;;4.90;;
15181;SDS011;7692;50.602;8.692;2024-01-10T02:08:16;5.27;;;5.17;;
15181;SDS011;7692;50.602;8.692;2024-01-10T02:10:45;5.50;;;5.40;;
15181;SDS011;7692;50.602;8.692;2024-01-10T02:13:14;5.77;;;5.67;;
15181;SDS011;7692;50.602;8.692;2024-01-10T02:15:42;5.83;;;5.73;;
15181;SDS011;7692;50.602;8.692;2024-01-10T02:18:11;5.10;;;5.00;;
15181;SDS011;7692;50.602;8.692;2024-01-10T02:20:43;5.50;;;5.40;;
15181;SDS011;7692;50.602;8.692;2024-01-10T02:23:12;5.60;;;5.50;;
15181;SDS011;7692;50.602;8.692;2024-01-10T02:25:42;4.60;;;4.50;;
15181;SDS011;7692;50.602;8.692;2024-01-10T02:28:10;5.60;;;5.50;;
15181;SDS011;7692;50.602;8.692;2024-01-10T02:30:39;4.90;;;4.80;;
15181;SDS011;7692;50.602;8.692;2024-01-10T02:33:07;5.93;;;5.83;;
15181;SDS011;7692;50.602;8.692;2024-01-10T02:35:36;4.90;;;4.80;;
15181;SDS011;7692;50.602;8.692;2024-01-10T02:38:05;5.63;;;5.53;;
15181;SDS011;7692;50.602;8.692;2024-01-10T02:40:34;4.73;;;4.63;;
15181;SDS011;7692;50.602;8.692;2024-01-10T02:43:03;5.60;;;5.50;;
15181;SDS011;7692;50.602;8.692;2024-01-10T02:45:33;5.43;;;5.33;;
15181;SDS011;7692;50.602;8.692;2024-01-10T02:48:02;5.17;;;5.07;;
15181;SDS011;7692;50.602;8.692;2024-01-10T02:50:31;5.73;;;5.63;;
15181;SDS011;7692;50.602;8.692;2024-01-10T02:52:59;5.70;;;5.60;;
15181;SDS011;7692;50.602;8.692;2024-01-10T02:55:27;5.30;;;5.20;;
15181;SDS011;7692;50.602;8.692;2024-01-10T02:57:56;4.77;;;4.67;;
15181;SDS011;7692;50.602;8.692;2024-01-10T03:00:25;5.50;;;5.40;;
15181;SDS011;7692;50.602;8.692;2024-01-10T03:02:54;5.73;;;5.63;;
15181;SDS011;7692;50.602;8.692;2024-01-10T03:05:22;5.27;;;5.17;;
15181;SDS011;7692;50.602;8.692;2024-01-10T03:07:51;5.30;;;5.20;;
15181;SDS011;7692;50.602;8.692;2024-01-10T03:10:19;5.27;;;5.17;;
15181;SDS011;7692;50.602;8.692;2024-01-10T03:12:47;5.17;;;5.07;;
15181;SDS011;7692;50.602;8.692;2024-01-10T03:15:16;5.87;;;5.77;;
15181;SDS011;7692;50.602;8.692;2024-01-10T03:17:46;5.20;;;5.10;;
15181;SDS011;7692;50.602;8.692;2024-01-10T03:20:14;5.50;;;5.40;;
15181;SDS011;7692;50.602;8.692;2024-01-10T03:22:43;4.93;;;4.83;;
15181;SDS011;7692;50.602;8.692;2024-01-10T03:25:11;4.70;;;4.60;;
15181;SDS011;7692;50.602;8.692;2024-01-10T03:27:40;5.37;;;5.27;;
15181;SDS011;7692;50.602;8.692;2024-01-10T03:30:08;5.10;;;5.00;;
15181;SDS011;7692;50.602;8.692;2024-01-10T03:32:37;6.17;;;6.07;;
15181;SDS011;7692;50.602;8.692;2024-01-10T03:35:08;4.90;;;4.80;;
15181;SDS011;7692;50.602;8.692;2024-01-10T03:37:36;5.93;;;5.83;;
15181;SDS011;7692;50.602;8.692;2024-01-10T03:40:05;5.73;;;5.63;;
15181;SDS011;7692;50.602;8.692;2024-01-10T03:42:34;5.47;;;5.37;;
15181;SDS011;7692;50.602;8.692;2024-01-10T03:45:03;5.87;;;5.77;;
15181;SDS011;7692;50.602;8.692;2024-01-10T03:47:31;4.90;;;4.80;;
15181;SDS011;7692;50.602;8.692;2024-01-10T03:50:00;5.77;;;5.67;;
15181;SDS011;7692;50.602;8.692;2024-01-10T03:52:29;5.60;;;5.50;;
15181;SDS011;7692;50.602;8.692;2024-01-10T03:54:58;5.03;;;4.93;;
15181;SDS011;7692;50.602;8.692;2024-01-10T03:57:26;5.53;;;5.43;;
15181;SDS011;7692;50.602;8.692;2024-01-10T03:59:54;5.40;;;5.30;;
15181;SDS011;7692;50.602;8.692;2024-01-10T04:02:23;5.83;;;5.73;;
15181;SDS011;7692;50.602;8.692;2024-01-10T04:04:51;5.17;;;5.07;;
15181;SDS011;7692;50.602;8.692;2024-01-10T04:07:20;5.83;;;5.73;;
15181;SDS011;7692;50.602;8.692;2024-01-10T04:09:50;5.50;;;5.40;;
15181;SDS011;7692;50.602;8.692;2024-01-10T04:12:19;5.80;;;5.70;;
15181;SDS011;7692;50.602;8.692;2024-01-10T04:14:47;6.20;;;6.10;;
15181;SDS011;7692;50.602;8.692;2024-01-10T04:17:15;4.90;;;4.80;;
15181;SDS011;7692;50.602;8.692;2024-01-10T04:19:44;6.27;;;6.17;;
15181;SDS011;7692;50.602;8.692;2024-01-10T04:22:12;5.47;;;5.37;;
15181;SDS011;7692;50.602;8.692;2024-01-10T04:24:40;5.53;;;5.43;;
15181;SDS011;7692;50.602;8.692;2024-01-10T04:27:10;5.83;;;5.73;;
15181;SDS011;7692;50.602;8.692;2024-01-10T04:29:38;5.00;;;4.90;;
15181;SDS011;7692;50.602;8.692;2024-01-10T04:32:07;5.20;;;5.10;;
15181;SDS011;7692;50.602;8.692;2024-01-10T04:34:35;5.93;;;5.83;;
15181;SDS011;7692;50.602;8.692;2024-01-10T04:37:04;5.10;;;5.00;;
15181;SDS011;7692;50.602;8.692;2024-01-10T04:39:33;5.43;;;5.33;;
15181;SDS011;7692;50.602;8.692;2024-01-10T04:42:02;5.73;;;5.63;;
15181;SDS011;7692;50.602;8.692;2024-01-10T04:44:31;5.67;;;5.57;;
15181;SDS011;7692;50.602;8.692;2024-01-10T04:46:59;5.00;;;4.90;;
15181;SDS011;7692;50.602;8.692;2024-01-10T04:49:28;5.67;;;5.57;;
15181;SDS011;7692;50.602;8.692;2024-01-10T04:51:56;6.13;;;6.03;;
15181;SDS011;7692;50.602;8.692;2024-01-10T04:54:25;4.83;;;4.73;;
15181;SDS011;7692;50.602;8.692;2024-01-10T04:56:53;5.20;;;5.10;;
15181;SDS011;7692;50.602;8.692;2024-01-10T04:59:22;5.60;;;5.50;;
15181;SDS011;7692;50.602;8.692;2024-01-10T05:01:51;5.03;;;4.93;;
15181;SDS011;7692;50.602;8.692;2024-01-10T05:04:22;5.00;;;4.90;;
15181;SDS011;7692;50.602;8.692;2024-01-10T05:06:51;5.47;;;5.37;;
15181;SDS011;7692;50.602;8.692;2024-01-10T05:09:19;5.33;;;5.23;;
15181;SDS011;7692;50.602;8.692;2024-01-10T05:11:47;5.90;;;5.80;;
15181;SDS011;7692;50.602;8.692;2024-01-10T05:14:17;6.17;;;6.07;;
15181;SDS011;7692;50.602;8.692;2024-01-10T05:16:47;5.93;;;5.83;;
15181;SDS011;7692;50.602;8.692;2024-01-10T05:19:17;6.00;;;5.90;;
15181;SDS011;7692;50.602;8.692;2024-01-10T05:21:45;5.63;;;5.53;;
15181;SDS011;7692;50.602;8.692;2024-01-10T05:24:15;5.37;;;5.27;;
15181;SDS011;7692;50.602;8.692;2024-01-10T05:26:44;5.33;;;5.23;;
15181;SDS011;7692;50.602;8.692;2024-01-10T05:29:13;5.13;;;5.03;;
15181;SDS011;7692;50.602;8.692;2024-01-10T05:31:41;5.57;;;5.47;;
15181;SDS011;7692;50.602;8.692;2024-01-10T05:34:10;4.90;;;4.80;;
15181;SDS011;7692;50.602;8.692;2024-01-10T05:36:40;5.23;;;5.13;;
15181;SDS011;7692;50.602;8.692;2024-01-10T05:39:08;4.93;;;4.83;;
15181;SDS011;7692;50.602;8.692;2024-01-10T05:41:37;4.90;;;4.80;;
15181;SDS011;7692;50.602;8.692;2024-01-10T05:44:08;5.33;;;5.23;;
15181;SDS011;7692;50.602;8.692;2024-01-10T05:46:36;5.60;;;5.50;;
15181;SDS011;7692;50.602;8.692;2024-01-10T05:49:04;4.80;;;4.70;;
15181;SDS011;7692;50.602;8.692;2024-01-10T05:51:33;5.50;;;5.40;;
15181;SDS011;7692;50.602;8.692;2024-01-10T05:54:03;5.50;;;5.40;;
15181;SDS011;7692;50.602;8.692;2024-01-10T05:56:33;5.87;;;5.77;;
15181;SDS011;7692;50.602;8.692;2024-01-10T05:59:01;5.00;;;4.90;;
15181;SDS011;7692;50.602;8.692;2024-01-10T06:01:30;6.13;;;6.03;;
15181;SDS011;7692;50.602;8.692;2024-01-10T06:03:58;4.70;;;4.60;;
15181;SDS011;7692;50.602;8.692;2024-01-10T06:06:27;5.40;;;5.30;;
15181;SDS011;7692;50.602;8.692;2024-01-10T06:08:55;5.63;;;5.53;;
15181;SDS011;7692;50.602;8.692;2024-01-10T06:11:25;5.67;;;5.57;;
15181;SDS011;7692;50.602;8.692;2024-01-10T06:13:54;5.70;;;5.60;;
15181;SDS011;7692;50.602;8.692;2024-01-10T06:16:23;5.80;;;5.70;;
15181;SDS011;7692;50.602;8.692;2024-01-10T06:18:52;5.33;;;5.23;;
15181;SDS011;7692;50.602;8.692;2024-01-10T06:21:20;5.20;;;5.10;;
15181;SDS011;7692;50.602;8.692;2024-01-10T06:23:48;5.37;;;5.27;;
15181;SDS011;7692;50.602;8.692;2024-01-10T06:26:17;5.93;;;5.83;;
15181;SDS011;7692;50.602;8.692;2024-01-10T06:28:47;5.50;;;5.40;;
15181;SDS011;7692;50.602;8.692;2024-01-10T06:31:15;5.30;;;5.20;;
15181;SDS011;7692;50.602;8.692;2024-01-10T06:33:44;5.83;;;5.73;;
15181;SDS011;7692;50.602;8.692;2024-01-10T06:36:12;5.40;;;5.30;;
15181;SDS011;7692;50.602;8.692;2024-01-10T06:38:41;5.47;;;5.37;;
15181;SDS011;7692;50.602;8.692;2024-01-10T06:41:10;5.80;;;5.70;;
15181;SDS011;7692;50.602;8.692;2024-01-10T06:43:40;5.57;;;5.47;;
15181;SDS011;7692;50.602;8.692;2024-01-10T06:46:13;5.60;;;5.50;;
15181;SDS011;7692;50.602;8.692;2024-01-10T06:48:41;5.60;;;5.50;;
15181;SDS011;7692;50.602;8.692;2024-01-10T06:51:10;5.70;;;5.60;;
15181;SDS011;7692;50.602;8.692;2024-01-10T06:53:39;5.00;;;4.90;;
15181;SDS011;7692;50.602;8.692;2024-01-10T06:56:07;5.87;;;5.77;;
15181;SDS011;7692;50.602;8.692;2024-01-10T06:58:36;6.03;;;5.93;;
15181;SDS011;7692;50.602;8.692;2024-01-10T07:01:10;4.97;;;4.87;;
15181;SDS011;7692;50.602;8.692;2024-01-10T07:03:42;5.80;;;5.70;;
15181;SDS011;7692;50.602;8.692;2024-01-10T07:06:11;5.60;;;5.50;;
15181;SDS011;7692;50.602;8.692;2024-01-10T07:08:42;5.93;;;5.83;;
15181;SDS011;7692;50.602;8.692;2024-01-10T07:11:11;4.83;;;4.73;;
15181;SDS011;7692;50.602;8.692;2024-01-10T07:13:40;6.60;;;6.40;;
15181;SDS011;7692;50.602;8.692;2024-01-10T07:16:08;5.83;;;5.73;;
15181;SDS011;7692;50.602;8.692;2024-01-10T07:18:37;6.17;;;6.07;;
15181;SDS011;7692;50.602;8.692;2024-01-10T07:21:08;5.60;;;5.50;;
15181;SDS011;7692;50.602;8.692;2024-01-10T07:23:37;5.50;;;5.40;;
15181;SDS011;7692;50.602;8.692;2024-01-10T07:26:07;5.80;;;5.70;;
15181;SDS011;7692;50.602;8.692;2024-01-10T07:28:35;5.13;;;5.03;;
15181;SDS011;7692;50.602;8.692;2024-01-10T07:31:04;5.00;;;4.90;;
15181;SDS011;7692;50.602;8.692;2024-01-10T07:33:33;4.90;;;4.80;;
15181;SDS011;7692;50.602;8.692;2024-01-10T07:36:02;5.67;;;5.57;;
15181;SDS011;7692;50.602;8.692;2024-01-10T07:38:31;5.10;;;5.00;;
15181;SDS011;7692;50.602;8.692;2024-01-10T07:41:00;5.97;;;5.87;;
15181;SDS011;7692;50.602;8.692;2024-01-10T07:43:28;5.80;;;5.70;;
15181;SDS011;7692;50.602;8.692;2024-01-10T07:45:57;5.77;;;5.67;;
15181;SDS011;7692;50.602;8.692;2024-01-10T07:48:27;5.80;;;5.70;;
15181;SDS011;7692;50.602;8.692;2024-01-10T07:50:57;6.30;;;6.20;;
15181;SDS011;7692;50.602;8.692;2024-01-10T07:53:26;5.20;;;5.10;;
15181;SDS011;7692;50.602;8.692;2024-01-10T07:55:55;5.53;;;5.43;;
15181;SDS011;7692;50.602;8.692;2024-01-10T07:58:24;5.50;;;5.40;;
15181;SDS011;7692;50.602;8.692;2024-01-10T08:00:53;5.20;;;5.10;;
15181;SDS011;7692;50.602;8.692;2024-01-10T08:03:21;5.40;;;5.30;;
15181;SDS011;7692;50.602;8.692;2024-01-10T08:05:50;6.00;;;5.90;;
15181;SDS011;7692;50.602;8.692;2024-01-10T08:08:18;5.30;;;5.20;;
15181;SDS011;7692;50.602;8.692;2024-01-10T08:10:47;5.43;;;5.33;;
15181;SDS011;7692;50.602;8.692;2024-01-10T08:13:16;5.93;;;5.83;;
15181;SDS011;7692;50.602;8.692;2024-01-10T08:15:45;4.87;;;4.77;;
15181;SDS011;7692;50.602;8.692;2024-01-10T08:18:14;5.23;;;5.13;;
15181;SDS011;7692;50.602;8.692;2024-01-10T08:20:42;5.57;;;5.47;;
15181;SDS011;7692;50.602;8.692;2024-01-10T08:23:11;5.43;;;5.33;;
15181;SDS011;7692;50.602;8.692;2024-01-10T08:25:40;5.77;;;5.67;;
15181;SDS011;7692;50.602;8.692;2024-01-10T08:28:10;5.47;;;5.37;;
15181;SDS011;7692;50.602;8.692;2024-01-10T08:30:41;5.30;;;5.20;;
15181;SDS011;7692;50.602;8.692;2024-01-10T08:33:09;5.63;;;5.53;;
15181;SDS011;7692;50.602;8.692;2024-01-10T08:35:38;5.40;;;5.30;;
15181;SDS011;7692;50.602;8.692;2024-01-10T08:38:06;5.73;;;5.63;;
15181;SDS011;7692;50.602;8.692;2024-01-10T08:40:34;4.87;;;4.77;;
15181;SDS011;7692;50.602;8.692;2024-01-10T08:43:04;5.40;;;5.30;;
15181;SDS011;7692;50.602;8.692;2024-01-10T08:45:32;4.90;;;4.80;;
15181;SDS011;7692;50.602;8.692;2024-01-10T08:48:02;5.33;;;5.23;;
15181;SDS011;7692;50.602;8.692;2024-01-10T08:50:35;5.57;;;5.47;;
15181;SDS011;7692;50.602;8.692;2024-01-10T08:53:03;4.50;;;4.40;;
15181;SDS011;7692;50.602;8.692;2024-01-10T08:55:32;6.00;;;5.90;;
15181;SDS011;7692;50.602;8.692;2024-01-10T08:58:03;5.10;;;5.00;;
15181;SDS011;7692;50.602;8.692;2024-01-10T09:00:33;5.33;;;5.23;;
15181;SDS011;7692;50.602;8.692;2024-01-10T09:03:04;4.80;;;4.70;;
15181;SDS011;7692;50.602;8.692;2024-01-10T09:05:33;5.50;;;5.40;;
15181;SDS011;7692;50.602;8.692;2024-01-10T09:08:02;4.70;;;4.60;;
15181;SDS011;7692;50.602;8.692;2024-01-10T09:10:30;5.20;;;5.10;;
15181;SDS011;7692;50.602;8.692;2024-01-10T09:12:59;4.63;;;4.53;;
15181;SDS011;7692;50.602;8.692;2024-01-10T09:15:28;5.10;;;5.00;;
15181;SDS011;7692;50.602;8.692;2024-01-10T09:17:56;5.33;;;5.23;;
15181;SDS011;7692;50.602;8.692;2024-01-10T09:20:26;5.27;;;5.17;;
15181;SDS011;7692;50.602;8.692;2024-01-10T09:22:55;5.63;;;5.53;;
15181;SDS011;7692;50.602;8.692;2024-01-10T09:25:26;5.27;;;5.17;;
15181;SDS011;7692;50.602;8.692;2024-01-10T09:27:55;5.70;;;5.60;;
15181;SDS011;7692;50.602;8.692;2024-01-10T09:30:23;5.17;;;5.07;;
15181;SDS011;7692;50.602;8.692;2024-01-10T09:32:52;4.40;;;4.30;;
15181;SDS011;7692;50.602;8.692;2024-01-10T09:35:20;5.03;;;4.93;;
15181;SDS011;7692;50.602;8.692;2024-01-10T09:37:50;5.37;;;5.27;;
15181;SDS011;7692;50.602;8.692;2024-01-10T09:40:20;5.33;;;5.23;;
15181;SDS011;7692;50.602;8.692;2024-01-10T09:42:50;5.00;;;4.90;;
15181;SDS011;7692;50.602;8.692;2024-01-10T09:45:18;4.80;;;4.70;;
15181;SDS011;7692;50.602;8.692;2024-01-10T09:47:48;5.23;;;5.13;;
15181;SDS011;7692;50.602;8.692;2024-01-10T09:50:16;5.53;;;5.43;;
15181;SDS011;7692;50.602;8.692;2024-01-10T09:52:46;4.67;;;4.57;;
15181;SDS011;7692;50.602;8.692;2024-01-10T09:55:20;5.07;;;4.97;;
15181;SDS011;7692;50.602;8.692;2024-01-10T09:57:51;5.03;;;4.93;;
15181;SDS011;7692;50.602;8.692;2024-01-10T10:00:19;5.30;;;5.20;;
15181;SDS011;7692;50.602;8.692;2024-01-10T10:02:48;4.50;;;4.40;;
15181;SDS011;7692;50.602;8.692;2024-01-10T10:05:17;4.70;;;4.60;;
15181;SDS011;7692;50.602;8.692;2024-01-10T10:07:46;4.33;;;4.23;;
15181;SDS011;7692;50.602;8.692;2024-01-10T10:10:15;4.60;;;4.50;;
15181;SDS011;7692;50.602;8.692;2024-01-10T10:12:45;4.70;;;4.60;;
15181;SDS011;7692;50.602;8.692;2024-01-10T10:15:15;4.40;;;4.30;;
15181;SDS011;7692;50.602;8.692;2024-01-10T10:17:45;4.00;;;3.90;;
15181;SDS011;7692;50.602;8.692;2024-01-10T10:20:17;4.40;;;4.30;;
15181;SDS011;7692;50.602;8.692;2024-01-10T10:22:57;4.30;;;4.20;;
15181;SDS011;7692;50.602;8.692;2024-01-10T10:25:27;4.17;;;4.07;;
15181;SDS011;7692;50.602;8.692;2024-01-10T10:27:58;4.27;;;4.17;;
15181;SDS011;7692;50.602;8.692;2024-01-10T10:30:27;4.40;;;4.30;;
15181;SDS011;7692;50.602;8.692;2024-01-10T10:32:56;3.50;;;3.40;;
15181;SDS011;7692;50.602;8.692;2024-01-10T10:35:24;4.10;;;4.00;;
15181;SDS011;7692;50.602;8.692;2024-01-10T10:38:07;4.17;;;4.07;;
15181;SDS011;7692;50.602;8.692;2024-01-10T10:40:36;3.30;;;3.20;;
15181;SDS011;7692;50.602;8.692;2024-01-10T10:43:06;3.50;;;3.40;;
15181;SDS011;7692;50.602;8.692;2024-01-10T10:45:41;3.53;;;3.43;;
15181;SDS011;7692;50.602;8.692;2024-01-10T10:48:13;3.60;;;3.50;;
15181;SDS011;7692;50.602;8.692;2024-01-10T10:50:46;3.40;;;3.30;;
15181;SDS011;7692;50.602;8.692;2024-01-10T10:53:18;3.30;;;3.20;;
15181;SDS011;7692;50.602;8.692;2024-01-10T10:55:50;2.90;;;2.90;;
15181;SDS011;7692;50.602;8.692;2024-01-10T10:58:20;3.70;;;3.60;;
15181;SDS011;7692;50.602;8.692;2024-01-10T11:00:50;3.00;;;3.00;;
15181;SDS011;7692;50.602;8.692;2024-01-10T11:03:20;3.67;;;3.57;;
15181;SDS011;7692;50.602;8.692;2024-01-10T11:05:49;3.30;;;3.20;;
15181;SDS011;7692;50.602;8.692;2024-01-10T11:08:19;2.90;;;2.90;;
15181;SDS011;7692;50.602;8.692;2024-01-10T11:10:49;3.20;;;3.10;;
15181;SDS011;7692;50.602;8.692;2024-01-10T11:13:28;2.97;;;2.97;;
15181;SDS011;7692;50.602;8.692;2024-01-10T11:19:18;2.97;;;2.97;;
15181;SDS011;7692;50.602;8.692;2024-01-10T11:22:09;2.90;;;2.90;;
15181;SDS011;7692;50.602;8.692;2024-01-10T11:24:49;3.00;;;3.00;;
15181;SDS011;7692;50.602;8.692;2024-01-10T11:27:17;2.90;;;2.90;;
15181;SDS011;7692;50.602;8.692;2024-01-10T11:29:47;2.80;;;2.80;;
15181;SDS011;7692;50.602;8.692;2024-01-10T11:32:16;2.40;;;2.40;;
15181;SDS011;7692;50.602;8.692;2024-01-10T11:34:49;2.70;;;2.70;;
15181;SDS011;7692;50.602;8.692;2024-01-10T11:37:21;2.50;;;2.50;;
15181;SDS011;7692;50.602;8.692;2024-01-10T11:39:50;2.60;;;2.60;;
15181;SDS011;7692;50.602;8.692;2024-01-10T11:42:21;2.80;;;2.80;;
15181;SDS011;7692;50.602;8.692;2024-01-10T11:44:51;2.60;;;2.60;;
15181;SDS011;7692;50.602;8.692;2024-01-10T11:47:20;2.90;;;2.90;;
15181;SDS011;7692;50.602;8.692;2024-01-10T11:49:55;2.87;;;2.87;;
15181;SDS011;7692;50.602;8.692;2024-01-10T11:52:31;3.00;;;3.00;;
15181;SDS011;7692;50.602;8.692;2024-01-10T11:55:00;3.00;;;3.00;;
15181;SDS011;7692;50.602;8.692;2024-01-10T11:57:31;2.70;;;2.70;;
15181;SDS011;7692;50.602;8.692;2024-01-10T12:00:02;3.00;;;3.00;;
15181;SDS011;7692;50.602;8.692;2024-01-10T12:02:35;2.80;;;2.80;;
15181;SDS011;7692;50.602;8.692;2024-01-10T12:05:04;2.80;;;2.80;;
15181;SDS011;7692;50.602;8.692;2024-01-10T12:07:33;2.60;;;2.60;;
15181;SDS011;7692;50.602;8.692;2024-01-10T12:10:02;2.60;;;2.60;;
15181;SDS011;7692;50.602;8.692;2024-01-10T12:12:30;2.90;;;2.90;;
15181;SDS011;7692;50.602;8.692;2024-01-10T12:14:59;3.00;;;3.00;;
15181;SDS011;7692;50.602;8.692;2024-01-10T12:17:29;2.90;;;2.90;;
15181;SDS011;7692;50.602;8.692;2024-01-10T12:19:57;3.30;;;3.20;;
15181;SDS011;7692;50.602;8.692;2024-01-10T12:22:26;2.90;;;2.90;;
15181;SDS011;7692;50.602;8.692;2024-01-10T12:24:54;3.17;;;3.10;;
15181;SDS011;7692;50.602;8.692;2024-01-10T12:27:22;2.90;;;2.90;;
15181;SDS011;7692;50.602;8.692;2024-01-10T12:29:53;2.70;;;2.70;;
15181;SDS011;7692;50.602;8.692;2024-01-10T12:32:21;2.97;;;2.97;;
15181;SDS011;7692;50.602;8.692;2024-01-10T12:34:59;2.70;;;2.70;;
15181;SDS011;7692;50.602;8.692;2024-01-10T12:37:28;2.80;;;2.80;;
15181;SDS011;7692;50.602;8.692;2024-01-10T12:39:57;2.80;;;2.80;;
15181;SDS011;7692;50.602;8.692;2024-01-10T12:42:26;2.70;;;2.70;;
15181;SDS011;7692;50.602;8.692;2024-01-10T12:44:54;2.40;;;2.40;;
15181;SDS011;7692;50.602;8.692;2024-01-10T12:47:24;2.40;;;2.40;;
15181;SDS011;7692;50.602;8.692;2024-01-10T12:49:53;2.60;;;2.60;;
15181;SDS011;7692;50.602;8.692;2024-01-10T12:52:23;2.30;;;2.30;;
15181;SDS011;7692;50.602;8.692;2024-01-10T12:54:51;2.60;;;2.60;;
15181;SDS011;7692;50.602;8.692;2024-01-10T12:57:21;2.60;;;2.60;;
15181;SDS011;7692;50.602;8.692;2024-01-10T12:59:50;2.63;;;2.63;;
15181;SDS011;7692;50.602;8.692;2024-01-10T13:02:18;2.40;;;2.40;;
15181;SDS011;7692;50.602;8.692;2024-01-10T13:04:50;2.40;;;2.40;;
15181;SDS011;7692;50.602;8.692;2024-01-10T13:07:19;2.50;;;2.50;;
15181;SDS011;7692;50.602;8.692;2024-01-10T13:09:49;2.30;;;2.30;;
15181;SDS011;7692;50.602;8.692;2024-01-10T13:12:19;2.30;;;2.30;;
15181;SDS011;7692;50.602;8.692;2024-01-10T13:14:48;2.40;;;2.40;;
15181;SDS011;7692;50.602;8.692;2024-01-10T13:17:16;2.40;;;2.40;;
15181;SDS011;7692;50.602;8.692;2024-01-10T13:19:44;2.50;;;2.50;;
15181;SDS011;7692;50.602;8.692;2024-01-10T13:22:15;2.40;;;2.40;;
15181;SDS011;7692;50.602;8.692;2024-01-10T13:24:45;2.40;;;2.40;;
15181;SDS011;7692;50.602;8.692;2024-01-10T13:27:15;2.40;;;2.40;;
15181;SDS011;7692;50.602;8.692;2024-01-10T13:29:47;2.50;;;2.50;;
15181;SDS011;7692;50.602;8.692;2024-01-10T13:32:15;2.30;;;2.30;;
15181;SDS011;7692;50.602;8.692;2024-01-10T13:34:44;2.30;;;2.30;;
15181;SDS011;7692;50.602;8.692;2024-01-10T13:37:12;2.30;;;2.30;;
15181;SDS011;7692;50.602;8.692;2024-01-10T13:39:41;2.53;;;2.53;;
15181;SDS011;7692;50.602;8.692;2024-01-10T13:42:10;2.57;;;2.57;;
15181;SDS011;7692;50.602;8.692;2024-01-10T13:44:39;2.50;;;2.50;;
15181;SDS011;7692;50.602;8.692;2024-01-10T13:47:08;2.43;;;2.43;;
15181;SDS011;7692;50.602;8.692;2024-01-10T13:49:36;2.30;;;2.30;;
15181;SDS011;7692;50.602;8.692;2024-01-10T13:52:05;2.50;;;2.50;;
15181;SDS011;7692;50.602;8.692;2024-01-10T13:54:33;2.70;;;2.70;;
15181;SDS011;7692;50.602;8.692;2024-01-10T13:57:03;2.50;;;2.50;;
15181;SDS011;7692;50.602;8.692;2024-01-10T13:59:31;2.40;;;2.40;;
15181;SDS011;7692;50.602;8.692;2024-01-10T14:02:01;2.50;;;2.50;;
15181;SDS011;7692;50.602;8.692;2024-01-10T14:04:29;2.50;;;2.50;;
15181;SDS011;7692;50.602;8.692;2024-01-10T14:06:58;2.50;;;2.50;;
15181;SDS011;7692;50.602;8.692;2024-01-10T14:09:26;2.40;;;2.40;;
15181;SDS011;7692;50.602;8.692;2024-01-10T14:11:55;2.50;;;2.50;;
15181;SDS011;7692;50.602;8.692;2024-01-10T14:14:23;2.60;;;2.60;;
15181;SDS011;7692;50.602;8.692;2024-01-10T14:16:52;2.57;;;2.57;;
15181;SDS011;7692;50.602;8.692;2024-01-10T14:19:22;2.50;;;2.50;;
15181;SDS011;7692;50.602;8.692;2024-01-10T14:21:50;2.70;;;2.70;;
15181;SDS011;7692;50.602;8.692;2024-01-10T14:24:19;2.40;;;2.40;;
15181;SDS011;7692;50.602;8.692;2024-01-10T14:26:47;2.40;;;2.40;;
15181;SDS011;7692;50.602;8.692;2024-01-10T14:29:16;2.50;;;2.50;;
15181;SDS011;7692;50.602;8.692;2024-01-10T14:31:46;2.40;;;2.40;;
15181;SDS011;7692;50.602;8.692;2024-01-10T14:34:38;2.60;;;2.60;;
15181;SDS011;7692;50.602;8.692;2024-01-10T14:37:08;2.50;;;2.50;;
15181;SDS011;7692;50.602;8.692;2024-01-10T14:39:37;2.70;;;2.70;;
15181;SDS011;7692;50.602;8.692;2024-01-10T14:42:06;2.40;;;2.40;;
15181;SDS011;7692;50.602;8.692;2024-01-10T14:44:35;2.50;;;2.50;;
15181;SDS011;7692;50.602;8.692;2024-01-10T14:47:04;2.90;;;2.90;;
15181;SDS011;7692;50.602;8.692;2024-01-10T14:49:39;2.60;;;2.60;;
15181;SDS011;7692;50.602;8.692;2024-01-10T14:52:08;2.63;;;2.63;;
15181;SDS011;7692;50.602;8.692;2024-01-10T14:54:36;2.70;;;2.70;;
15181;SDS011;7692;50.602;8.692;2024-01-10T14:57:05;2.50;;;2.50;;
15181;SDS011;7692;50.602;8.692;2024-01-10T14:59:34;2.60;;;2.60;;
15181;SDS011;7692;50.602;8.692;2024-01-10T15:02:12;2.40;;;2.40;;
15181;SDS011;7692;50.602;8.692;2024-01-10T15:04:41;2.70;;;2.70;;
15181;SDS011;7692;50.602;8.692;2024-01-10T15:07:11;2.60;;;2.60;;
15181;SDS011;7692;50.602;8.692;2024-01-10T15:09:39;2.60;;;2.60;;
15181;SDS011;7692;50.602;8.692;2024-01-10T15:12:10;2.60;;;2.60;;
15181;SDS011;7692;50.602;8.692;2024-01-10T15:14:39;2.67;;;2.67;;
15181;SDS011;7692;50.602;8.692;2024-01-10T15:17:08;2.80;;;2.80;;